Time;durP1;ratioP1;P1;durP2;ratioP2;P2;SDS_P1;SDS_P2;PMS_P1;PMS_P2;Temp;Humidity;BMP_temperature;BMP_pressure;BME280_temperature;BME280_humidity;BME280_pressure;Samples;Min_cycle;Max_cycle;Signal;HPM_P1;HPM_P2
2023/01/24 01:50:24;;;;;;;35.10;16.80;;;;;;;-2.36;100.00;101825.64;104098;1296;600112;-75
2023/01/24 01:52:52;;;;;;;39.10;20.20;;;;;;;-2.38;100.00;101827.40;105182;1271;60587;-75
2023/01/24 01:55:21;;;;;;;50.40;20.40;;;;;;;-2.37;100.00;101824.31;104941;1271;60908;-73
2023/01/24 01:57:50;;;;;;;32.40;19.10;;;;;;;-2.32;100.00;101826.77;105008;1270;70724;-74
2023/01/24 02:00:20;;;;;;;35.50;21.30;;;;;;;-2.26;100.00;101821.92;104693;1274;68323;-72
2023/01/24 02:02:50;;;;;;;25.50;14.80;;;;;;;-2.17;100.00;101823.53;104368;1270;571049;-72
2023/01/24 02:05:19;;;;;;;25.10;13.70;;;;;;;-2.10;100.00;101824.60;104931;1273;60741;-74
2023/01/24 02:07:59;;;;;;;20.00;14.70;;;;;;;-2.04;100.00;101823.81;105055;1273;60607;-74
2023/01/24 02:13:16;;;;;;;24.40;14.90;;;;;;;-2.02;100.00;101823.65;104689;1271;68265;-72
2023/01/24 02:16:03;;;;;;;27.50;15.60;;;;;;;-2.00;100.00;101822.42;104939;1273;74402;-72
2023/01/24 02:18:39;;;;;;;25.30;16.20;;;;;;;-1.96;100.00;101820.87;104861;1273;63057;-77
2023/01/24 02:21:15;;;;;;;27.10;13.80;;;;;;;-1.91;100.00;101823.32;104834;1270;61060;-71
2023/01/24 02:23:51;;;;;;;29.90;18.10;;;;;;;-1.90;100.00;101823.55;105017;1270;74934;-74
2023/01/24 02:26:24;;;;;;;28.50;16.50;;;;;;;-1.88;100.00;101825.70;105005;1270;68491;-73
2023/01/24 02:28:56;;;;;;;;;;;;;;;-1.85;100.00;101827.89;104927;1273;72937;-75
2023/01/24 02:31:25;;;;;;;33.10;16.40;;;;;;;-1.82;100.00;101826.30;105044;1270;59664;-76
2023/01/24 02:33:54;;;;;;;33.60;17.00;;;;;;;-1.86;100.00;101830.24;105010;1270;59658;-73
2023/01/24 02:36:33;;;;;;;33.60;16.80;;;;;;;-1.85;100.00;101830.59;104749;1273;72779;-76
2023/01/24 04:04:22;;;;;;;36.30;20.10;;;;;;;-2.88;100.00;101814.30;102474;1295;600037;-76
2023/01/24 04:06:51;;;;;;;37.60;22.90;;;;;;;-2.91;100.00;101812.70;104872;1269;64159;-78
2023/01/24 04:09:20;;;;;;;53.90;26.10;;;;;;;-2.90;100.00;101813.19;104843;1273;59539;-76
2023/01/24 04:11:51;;;;;;;37.70;22.90;;;;;;;-2.86;100.00;101815.69;104666;1270;72593;-75
2023/01/24 04:14:23;;;;;;;33.20;19.90;;;;;;;-2.79;100.00;101816.93;104850;1270;69829;-74
2023/01/24 04:17:00;;;;;;;33.70;19.80;;;;;;;-2.72;100.00;101819.42;104441;1271;623601;-74
2023/01/24 04:19:36;;;;;;;35.10;19.10;;;;;;;-2.66;100.00;101815.79;104972;1274;62010;-75
2023/01/24 04:22:05;;;;;;;30.80;18.10;;;;;;;-2.61;100.00;101815.98;105053;1266;59196;-74
2023/01/24 04:24:34;;;;;;;29.60;19.30;;;;;;;-2.52;100.00;101815.85;105122;1268;73340;-73
2023/01/24 04:27:02;;;;;;;24.50;16.70;;;;;;;-2.48;100.00;101819.00;104913;1273;68986;-75
2023/01/24 04:29:41;;;;;;;30.40;19.60;;;;;;;-2.49;100.00;101824.77;104936;1266;72575;-77
2023/01/24 04:32:09;;;;;;;29.30;18.70;;;;;;;-2.55;100.00;101832.20;104770;1266;61530;-76
2023/01/24 04:34:48;;;;;;;32.00;18.90;;;;;;;-2.53;100.00;101828.33;105051;1271;59647;-75
2023/01/24 04:37:23;;;;;;;29.40;17.50;;;;;;;-2.50;100.00;101832.69;105870;1260;73891;-75
2023/01/24 04:39:51;;;;;;;29.50;17.30;;;;;;;-2.48;100.00;101832.94;105886;1257;68764;-76
2023/01/24 04:42:20;;;;;;;28.70;17.20;;;;;;;-2.47;100.00;101834.08;105830;1256;71566;-75
2023/01/24 04:44:48;;;;;;;34.50;20.40;;;;;;;-2.48;100.00;101832.20;105718;1261;60978;-76
2023/01/24 04:47:17;;;;;;;26.60;17.50;;;;;;;-2.47;100.00;101835.14;105672;1254;59703;-80
2023/01/24 04:49:45;;;;;;;33.50;20.20;;;;;;;-2.47;100.00;101835.60;105840;1260;73929;-74
2023/01/24 04:52:16;;;;;;;29.20;17.60;;;;;;;-2.44;100.00;101843.45;105826;1256;66921;-73
2023/01/24 04:55:07;;;;;;;30.50;18.50;;;;;;;-2.41;100.00;101847.27;105872;1257;73590;-74
2023/01/24 04:57:36;;;;;;;29.00;19.00;;;;;;;-2.39;100.00;101844.14;105957;1256;60129;-71
2023/01/24 05:00:07;;;;;;;34.00;17.50;;;;;;;-2.38;100.00;101845.64;105729;1255;61232;-77
2023/01/24 05:02:37;;;;;;;29.10;15.40;;;;;;;-2.36;100.00;101845.55;105806;1259;73514;-74
2023/01/24 05:05:06;;;;;;;32.50;18.00;;;;;;;-2.33;100.00;101853.94;105871;1261;66380;-73
2023/01/24 05:07:34;;;;;;;32.30;19.40;;;;;;;-2.34;100.00;101849.61;105598;1256;74594;-77
2023/01/24 05:10:07;;;;;;;25.90;18.40;;;;;;;-2.34;100.00;101845.85;105617;1256;61216;-75
2023/01/24 05:12:37;;;;;;;28.50;18.50;;;;;;;-2.33;100.00;101846.68;105530;1254;61136;-77
2023/01/24 05:15:09;;;;;;;;;;;;;;;-2.30;100.00;101850.36;105735;1261;71860;-75
2023/01/24 05:17:43;;;;;;;34.20;18.90;;;;;;;-2.30;100.00;101853.14;105838;1261;68612;-76
2023/01/24 05:20:13;;;;;;;31.60;18.10;;;;;;;-2.33;100.00;101854.13;105729;1259;70871;-74
2023/01/24 05:22:43;;;;;;;28.80;19.10;;;;;;;-2.38;100.00;101851.81;105587;1256;62830;-73
2023/01/24 05:25:14;;;;;;;32.90;20.20;;;;;;;-2.42;100.00;101852.46;105801;1254;62296;-76
2023/01/24 05:27:43;;;;;;;27.00;16.90;;;;;;;-2.37;100.00;101857.34;105614;1256;73428;-76
2023/01/24 05:30:13;;;;;;;30.70;16.40;;;;;;;-2.32;100.00;101853.33;105674;1261;66498;-74
2023/01/24 05:32:42;;;;;;;31.90;19.00;;;;;;;-2.33;100.00;101850.75;105829;1259;72893;-75
2023/01/24 05:35:10;;;;;;;24.80;16.10;;;;;;;-2.34;100.00;101852.42;105628;1261;59841;-75
2023/01/24 05:37:39;;;;;;;31.50;18.00;;;;;;;-2.36;100.00;101853.10;105615;1263;61929;-71
2023/01/24 05:40:09;;;;;;;28.20;16.70;;;;;;;-2.36;100.00;101852.55;105178;1256;1003685;-72
2023/01/24 05:42:40;;;;;;;29.00;17.50;;;;;;;-2.34;100.00;101851.54;105803;1257;68692;-73
2023/01/24 05:45:10;;;;;;;27.90;16.10;;;;;;;-2.36;100.00;101855.71;105729;1256;72935;-76
2023/01/24 05:47:39;;;;;;;28.30;16.40;;;;;;;-2.45;100.00;101856.06;105896;1257;62477;-78
2023/01/24 05:50:09;;;;;;;29.20;17.70;;;;;;;-2.49;100.00;101857.02;105682;1254;60840;-74
2023/01/24 05:52:38;;;;;;;27.90;17.10;;;;;;;-2.48;100.00;101857.84;105984;1258;72952;-73
2023/01/24 05:55:07;;;;;;;22.90;16.10;;;;;;;-2.45;100.00;101861.09;105942;1259;67912;-75
2023/01/24 05:57:38;;;;;;;31.40;18.10;;;;;;;-2.40;100.00;101866.70;105510;1256;72785;-75
2023/01/24 06:00:26;;;;;;;27.60;18.20;;;;;;;-2.37;100.00;101870.21;105693;1256;59753;-78
2023/01/24 06:03:13;;;;;;;39.90;20.30;;;;;;;-2.41;100.00;101872.92;105842;1259;62216;-74
2023/01/24 06:05:49;;;;;;;32.70;15.40;;;;;;;-2.52;100.00;101875.52;105844;1261;73303;-77
2023/01/24 06:08:19;;;;;;;34.90;19.80;;;;;;;-2.58;100.00;101876.16;105648;1261;67495;-76
2023/01/24 06:10:48;;;;;;;39.90;23.40;;;;;;;-2.59;100.00;101877.63;105677;1254;74198;-76
2023/01/24 06:13:17;;;;;;;34.80;19.30;;;;;;;-2.53;100.00;101874.06;105708;1256;59661;-76
2023/01/24 06:15:46;;;;;;;36.60;19.70;;;;;;;-2.44;100.00;101875.48;105849;1255;62225;-74
2023/01/24 06:18:16;;;;;;;30.30;17.20;;;;;;;-2.45;100.00;101874.08;105896;1257;71695;-75
2023/01/24 06:20:46;;;;;;;30.70;18.10;;;;;;;-2.45;100.00;101876.42;105668;1254;68831;-74
2023/01/24 06:23:24;;;;;;;32.30;19.40;;;;;;;-2.51;100.00;101877.02;105806;1254;74280;-76
2023/01/24 06:25:54;;;;;;;36.20;19.70;;;;;;;-2.55;100.00;101876.81;105830;1256;60635;-74
2023/01/24 06:28:22;;;;;;;28.00;17.80;;;;;;;-2.53;100.00;101874.20;105608;1255;59566;-76
2023/01/24 06:31:09;;;;;;;32.10;17.10;;;;;;;-2.51;100.00;101872.83;105501;1254;71490;-74
2023/01/24 06:34:15;;;;;;;29.50;17.80;;;;;;;-2.50;100.00;101878.74;105767;1261;66432;-75
2023/01/24 06:36:55;;;;;;;33.60;20.30;;;;;;;-2.51;100.00;101882.48;105855;1259;71981;-77
2023/01/24 06:39:23;;;;;;;31.90;21.30;;;;;;;-2.54;100.00;101879.55;105770;1259;60833;-75
2023/01/24 06:41:52;;;;;;;36.30;19.60;;;;;;;-2.54;100.00;101878.85;105964;1257;59680;-76
2023/01/24 06:44:20;;;;;;;34.50;17.20;;;;;;;-2.51;100.00;101877.07;105747;1260;73993;-75
2023/01/24 06:46:48;;;;;;;34.40;19.50;;;;;;;-2.49;100.00;101875.96;105857;1256;67469;-78
2023/01/24 06:49:17;;;;;;;32.10;18.50;;;;;;;-2.46;100.00;101872.80;105633;1261;71678;-76
2023/01/24 06:51:51;;;;;;;33.20;20.60;;;;;;;-2.42;100.00;101877.40;105827;1257;59615;-76
2023/01/24 06:54:19;;;;;;;25.40;18.20;;;;;;;-2.43;100.00;101873.13;105583;1254;62214;-76
2023/01/24 06:56:48;;;;;;;23.80;16.80;;;;;;;-2.47;100.00;101876.03;105744;1259;73551;-76
2023/01/24 06:59:22;;;;;;;37.00;20.50;;;;;;;-2.49;100.00;101877.59;105712;1260;69424;-75
2023/01/24 07:01:50;;;;;;;41.70;24.50;;;;;;;-2.47;100.00;101875.89;105880;1259;74299;-73
2023/01/24 07:04:18;;;;;;;52.00;25.20;;;;;;;-2.41;100.00;101880.16;105830;1254;60290;-72
2023/01/24 07:06:52;;;;;;;34.80;21.00;;;;;;;-2.36;100.00;101878.90;105800;1254;61334;-72
2023/01/24 07:09:21;;;;;;;45.80;24.40;;;;;;;-2.30;100.00;101881.80;105867;1255;74186;-74
2023/01/24 07:11:52;;;;;;;30.70;20.00;;;;;;;-2.30;100.00;101883.20;105888;1258;67642;-73
2023/01/24 07:14:20;;;;;;;34.20;19.60;;;;;;;-2.33;100.00;101882.55;105616;1256;74385;-74
2023/01/24 07:16:50;;;;;;;33.40;20.70;;;;;;;-2.37;100.00;101884.27;105908;1255;62888;-75
2023/01/24 07:19:21;;;;;;;32.90;20.20;;;;;;;-2.39;100.00;101883.85;105896;1257;61902;-74
2023/01/24 07:21:52;;;;;;;33.10;20.00;;;;;;;-2.38;100.00;101887.09;105583;1256;71430;-72
2023/01/24 07:24:21;;;;;;;36.80;21.50;;;;;;;-2.35;100.00;101890.05;105626;1261;69377;-76
2023/01/24 07:26:53;;;;;;;32.80;20.00;;;;;;;-2.34;100.00;101888.55;105803;1259;72503;-71
2023/01/24 07:29:22;;;;;;;39.90;25.20;;;;;;;-2.30;100.00;101890.77;105956;1259;59652;-77
2023/01/24 07:31:51;;;;;;;40.50;20.80;;;;;;;-2.32;100.00;101893.00;105526;1255;61859;-74
2023/01/24 07:34:19;;;;;;;29.80;18.20;;;;;;;-2.32;100.00;101896.34;105672;1254;72754;-74
2023/01/24 07:36:48;;;;;;;29.60;20.30;;;;;;;-2.38;100.00;101893.27;105830;1258;69599;-72
2023/01/24 07:39:18;;;;;;;30.20;18.50;;;;;;;-2.41;100.00;101894.39;105635;1254;74454;-74
2023/01/24 07:41:46;;;;;;;29.40;19.80;;;;;;;-2.39;100.00;101895.61;105651;1256;60399;-73
2023/01/24 07:44:14;;;;;;;31.20;20.30;;;;;;;-2.40;100.00;101891.68;105832;1255;59643;-74
2023/01/24 07:46:43;;;;;;;25.40;18.60;;;;;;;-2.40;100.00;101888.52;105749;1259;74106;-76
2023/01/24 07:49:11;;;;;;;30.30;19.80;;;;;;;-2.46;100.00;101892.98;105648;1261;68001;-72
2023/01/24 07:51:39;;;;;;;36.00;25.30;;;;;;;-2.48;100.00;101892.63;105859;1259;72445;-76
2023/01/24 07:54:08;;;;;;;25.90;17.80;;;;;;;-2.48;100.00;101897.71;105804;1258;62861;-74
2023/01/24 07:56:37;;;;;;;33.60;19.50;;;;;;;-2.48;100.00;101898.07;105923;1254;61198;-73
2023/01/24 07:59:05;;;;;;;33.60;19.80;;;;;;;-2.51;100.00;101898.27;105798;1254;74816;-75
2023/01/24 08:01:33;;;;;;;28.40;18.00;;;;;;;-2.52;100.00;101898.18;105621;1261;68022;-73
2023/01/24 08:04:02;;;;;;;38.00;20.70;;;;;;;-2.51;100.00;101894.98;105852;1265;73006;-76
2023/01/24 08:06:32;;;;;;;40.00;19.60;;;;;;;-2.51;100.00;101895.29;105811;1259;60762;-77
2023/01/24 08:09:01;;;;;;;31.30;19.80;;;;;;;-2.46;100.00;101894.91;105922;1258;61264;-76
2023/01/24 08:11:29;;;;;;;36.20;20.20;;;;;;;-2.39;100.00;101894.95;105748;1259;73591;-74
2023/01/24 08:13:58;;;;;;;36.40;21.00;;;;;;;-2.32;100.00;101893.40;105745;1258;69178;-75
2023/01/24 08:16:27;;;;;;;29.10;19.20;;;;;;;-2.34;100.00;101889.63;105591;1260;73579;-76
2023/01/24 08:18:55;;;;;;;28.60;19.10;;;;;;;-2.38;100.00;101893.77;105826;1256;62987;-75
2023/01/24 08:21:23;;;;;;;29.30;19.80;;;;;;;-2.37;100.00;101890.75;105478;1259;62597;-73
2023/01/24 08:23:51;;;;;;;32.30;20.90;;;;;;;-2.35;100.00;101891.66;105540;1260;75178;-74
2023/01/24 08:26:20;;;;;;;24.40;16.30;;;;;;;-2.29;100.00;101889.80;105821;1257;69772;-75
2023/01/24 08:28:49;;;;;;;29.50;19.20;;;;;;;-2.22;100.00;101889.75;105868;1258;72877;-76
2023/01/24 08:31:18;;;;;;;32.60;19.70;;;;;;;-2.19;100.00;101884.27;105681;1269;60476;-77
2023/01/24 08:33:46;;;;;;;29.00;18.90;;;;;;;-2.23;100.00;101883.86;105788;1259;61287;-76
2023/01/24 08:36:14;;;;;;;31.60;18.60;;;;;;;-2.26;100.00;101889.42;105828;1254;75730;-77
2023/01/24 08:38:42;;;;;;;31.00;20.40;;;;;;;-2.26;100.00;101886.56;105837;1260;67936;-79
2023/01/24 08:41:10;;;;;;;28.40;18.20;;;;;;;-2.23;100.00;101888.48;105736;1262;72794;-76
2023/01/24 08:43:39;;;;;;;26.80;15.30;;;;;;;-2.25;100.00;101886.50;105775;1260;60588;-79
2023/01/24 08:46:07;;;;;;;41.70;24.00;;;;;;;-2.24;100.00;101884.52;105823;1254;60809;-79
2023/01/24 08:48:35;;;;;;;42.30;26.60;;;;;;;-2.27;100.00;101883.83;105842;1255;73451;-75
2023/01/24 08:51:04;;;;;;;51.80;28.10;;;;;;;-2.25;100.00;101880.70;105953;1255;69297;-77
2023/01/24 08:53:33;;;;;;;41.80;23.60;;;;;;;-2.21;100.00;101881.08;105874;1261;72850;-75
2023/01/24 08:56:03;;;;;;;33.70;19.90;;;;;;;-2.19;100.00;101878.67;105917;1254;60460;-76
2023/01/24 08:58:33;;;;;;;39.90;22.30;;;;;;;-2.16;100.00;101878.80;105962;1260;61304;-76
2023/01/24 09:01:06;;;;;;;33.30;21.40;;;;;;;-2.18;100.00;101876.66;105789;1260;74334;-73
2023/01/24 09:03:34;;;;;;;;;;;;;;;-2.24;100.00;101874.09;105810;1262;67908;-77
2023/01/24 09:06:03;;;;;;;30.00;21.20;;;;;;;-2.21;100.00;101869.54;105797;1259;71939;-76
2023/01/24 09:08:32;;;;;;;27.10;19.30;;;;;;;-2.19;100.00;101868.84;105808;1260;61517;-79
2023/01/24 09:11:03;;;;;;;33.10;19.80;;;;;;;-2.14;100.00;101871.46;106034;1254;61933;-83
2023/01/24 09:13:31;;;;;;;37.10;21.70;;;;;;;-2.14;100.00;101866.21;106024;1257;73450;-76
2023/01/24 09:15:59;;;;;;;34.00;20.60;;;;;;;-2.22;100.00;101864.14;105830;1259;67695;-75
2023/01/24 09:18:28;;;;;;;31.60;20.30;;;;;;;-2.25;100.00;101862.40;105863;1257;73373;-75
2023/01/24 09:21:01;;;;;;;34.30;21.00;;;;;;;-2.28;100.00;101858.61;105845;1258;60473;-74
2023/01/24 09:23:29;;;;;;;;;;;;;;;-2.26;100.00;101855.15;105788;1259;62058;-73
2023/01/24 09:25:57;;;;;;;37.60;18.50;;;;;;;-2.19;100.00;101853.25;105951;1257;73990;-77
2023/01/24 09:28:24;;;;;;;23.10;15.40;;;;;;;-2.14;100.00;101856.14;105853;1260;69223;-74
2023/01/24 09:30:52;;;;;;;34.80;21.40;;;;;;;-2.13;100.00;101857.20;105560;1257;74220;-73
2023/01/24 09:33:21;;;;;;;28.20;19.20;;;;;;;-2.19;100.00;101855.13;105946;1256;60480;-74
2023/01/24 09:35:56;;;;;;;27.70;16.60;;;;;;;-2.21;100.00;101856.49;105767;1254;62200;-74
2023/01/24 09:38:27;;;;;;;31.70;17.70;;;;;;;-2.23;100.00;101858.08;105961;1257;74137;-73
2023/01/24 09:41:21;;;;;;;30.60;19.90;;;;;;;-2.20;100.00;101854.54;105784;1254;66417;-74
2023/01/24 09:43:57;;;;;;;42.00;23.50;;;;;;;-2.19;100.00;101853.38;105780;1258;72142;-76
2023/01/24 09:46:35;;;;;;;33.30;19.70;;;;;;;-2.10;100.00;101856.23;105876;1254;61196;-72
2023/01/24 09:49:31;;;;;;;31.40;19.70;;;;;;;-2.10;100.00;101852.55;105917;1255;61890;-73
2023/01/24 09:51:59;;;;;;;29.50;20.20;;;;;;;-2.19;100.00;101857.58;105909;1254;74796;-75
2023/01/24 09:55:12;;;;;;;36.30;20.10;;;;;;;-2.19;100.00;101855.45;105952;1255;68637;-74
2023/01/24 09:57:52;;;;;;;37.40;22.80;;;;;;;-2.12;100.00;101858.88;105369;1266;72098;-72
2023/01/24 10:00:29;;;;;;;33.30;20.20;;;;;;;-2.08;100.00;101860.33;105855;1253;60728;-73
2023/01/24 10:02:59;;;;;;;33.50;21.50;;;;;;;-2.07;100.00;101857.61;105984;1257;60695;-74
2023/01/24 10:05:38;;;;;;;26.20;16.90;;;;;;;-2.06;100.00;101858.03;105829;1259;74763;-74
2023/01/24 10:08:46;;;;;;;36.90;21.00;;;;;;;-2.06;100.00;101853.83;106051;1255;69960;-75
2023/01/24 10:11:51;;;;;;;39.30;21.20;;;;;;;-2.14;100.00;101854.02;105957;1254;73041;-79
2023/01/24 10:14:41;;;;;;;33.50;19.10;;;;;;;-2.21;100.00;101849.11;105747;1255;60782;-79
2023/01/24 10:17:18;;;;;;;33.20;18.10;;;;;;;-2.18;100.00;101848.88;105853;1253;61009;-78
2023/01/24 10:20:06;;;;;;;42.10;22.10;;;;;;;-2.13;100.00;101844.70;105950;1254;73189;-77
2023/01/24 10:22:45;;;;;;;38.60;22.90;;;;;;;-2.14;100.00;101837.92;105925;1254;69836;-77
2023/01/24 10:25:16;;;;;;;34.10;23.90;;;;;;;-2.14;100.00;101834.05;106074;1253;72635;-75
2023/01/24 10:27:46;;;;;;;40.30;23.70;;;;;;;-2.13;100.00;101835.56;106002;1251;61299;-73
2023/01/24 10:30:18;;;;;;;33.70;22.00;;;;;;;-2.10;100.00;101830.20;106086;1256;62124;-73
2023/01/24 10:32:47;;;;;;;36.40;20.80;;;;;;;-2.04;100.00;101824.66;106050;1257;73622;-73
2023/01/24 10:35:54;;;;;;;41.10;22.70;;;;;;;-1.99;100.00;101823.92;105942;1258;69018;-74
2023/01/24 10:38:22;;;;;;;34.00;21.80;;;;;;;-1.94;100.00;101818.61;105970;1253;72522;-73
2023/01/24 10:41:14;;;;;;;39.90;25.00;;;;;;;-1.91;100.00;101814.52;105941;1255;63816;-76
2023/01/24 10:43:44;;;;;;;34.60;22.70;;;;;;;-1.92;100.00;101813.17;105838;1259;60373;-76
2023/01/24 10:46:25;;;;;;;33.70;21.00;;;;;;;-1.90;100.00;101809.13;105816;1255;73836;-75
2023/01/24 10:48:55;;;;;;;35.40;22.00;;;;;;;-1.95;100.00;101807.97;105845;1254;68124;-79
2023/01/24 10:51:24;;;;;;;40.40;21.70;;;;;;;-2.01;100.00;101808.08;105777;1254;73248;-74
2023/01/24 10:53:54;;;;;;;29.70;20.30;;;;;;;-2.01;100.00;101802.63;105851;1254;63088;-76
2023/01/24 10:56:23;;;;;;;23.30;17.10;;;;;;;-1.97;100.00;101805.33;105798;1254;61067;-74
2023/01/24 10:58:57;;;;;;;30.60;20.30;;;;;;;-1.93;100.00;101798.52;105953;1255;75154;-76
2023/01/24 11:01:32;;;;;;;41.40;22.10;;;;;;;-1.87;100.00;101796.64;106100;1254;68843;-79
2023/01/24 11:04:19;;;;;;;31.10;20.90;;;;;;;-1.83;100.00;101792.41;105900;1257;74335;-78
2023/01/24 11:06:48;;;;;;;43.20;24.80;;;;;;;-1.89;100.00;101792.40;105899;1254;60539;-77
2023/01/24 11:09:20;;;;;;;37.70;22.20;;;;;;;-1.98;100.00;101794.33;105846;1254;60700;-77
2023/01/24 11:11:55;;;;;;;30.90;20.00;;;;;;;-1.96;100.00;101785.55;105978;1257;74344;-75
2023/01/24 11:14:26;;;;;;;27.80;17.40;;;;;;;-1.95;100.00;101783.16;105947;1255;68574;-76
2023/01/24 11:16:57;;;;;;;47.20;25.10;;;;;;;-1.97;100.00;101784.41;105798;1254;73411;-79
2023/01/24 11:19:33;;;;;;;43.30;21.50;;;;;;;-1.95;100.00;101781.38;106012;1254;61687;-74
2023/01/24 11:22:22;;;;;;;33.90;21.60;;;;;;;-1.90;100.00;101780.31;105949;1254;60584;-77
2023/01/24 11:24:55;;;;;;;36.50;18.50;;;;;;;-1.87;100.00;101780.27;105910;1253;74177;-78
2023/01/24 11:27:26;;;;;;;27.90;16.60;;;;;;;-1.81;100.00;101777.52;105548;1254;69309;-80
2023/01/24 11:30:19;;;;;;;21.90;16.00;;;;;;;-1.79;100.00;101772.75;105646;1261;73801;-82
2023/01/24 11:32:56;;;;;;;22.00;14.50;;;;;;;-1.72;100.00;101772.81;105899;1257;60559;-77
2023/01/24 11:35:32;;;;;;;23.60;15.10;;;;;;;-1.69;100.00;101771.83;105899;1253;61858;-76
2023/01/24 11:38:21;;;;;;;22.60;15.50;;;;;;;-1.72;100.00;101770.47;105879;1260;73015;-77
2023/01/24 11:41:02;;;;;;;33.70;20.10;;;;;;;-1.73;100.00;101767.42;106070;1254;68035;-76
2023/01/24 11:43:41;;;;;;;27.00;17.10;;;;;;;-1.73;100.00;101767.98;105899;1253;72847;-78
2023/01/24 11:46:21;;;;;;;25.70;16.70;;;;;;;-1.68;100.00;101764.77;105797;1253;60612;-79
2023/01/24 11:48:53;;;;;;;24.60;17.60;;;;;;;-1.70;100.00;101758.01;105928;1254;61477;-77
2023/01/24 11:51:44;;;;;;;28.50;19.60;;;;;;;-1.71;100.00;101762.31;105870;1254;74670;-75
2023/01/24 11:54:32;;;;;;;25.30;15.90;;;;;;;-1.66;100.00;101761.02;105751;1254;69180;-80
2023/01/24 11:57:25;;;;;;;27.40;18.40;;;;;;;-1.64;100.00;101757.19;105715;1254;73075;-75
2023/01/24 12:00:21;;;;;;;26.40;18.20;;;;;;;-1.64;100.00;101760.85;105744;1258;60541;-76
2023/01/24 12:03:13;;;;;;;29.20;18.20;;;;;;;-1.61;100.00;101758.54;105534;1257;62206;-78
2023/01/24 12:06:10;;;;;;;28.40;18.00;;;;;;;-1.56;100.00;101760.77;105919;1257;72706;-83
2023/01/24 12:08:58;;;;;;;29.30;21.30;;;;;;;-1.56;100.00;101757.97;105586;1254;67565;-77
2023/01/24 12:11:34;;;;;;;38.00;23.30;;;;;;;-1.60;100.00;101756.73;105594;1254;73480;-78
2023/01/24 12:14:23;;;;;;;30.20;17.70;;;;;;;-1.60;100.00;101757.35;105901;1254;61134;-76
2023/01/24 12:17:11;;;;;;;26.30;18.60;;;;;;;-1.56;100.00;101758.34;105909;1253;60636;-80
2023/01/24 12:20:27;;;;;;;30.50;18.10;;;;;;;-1.46;100.00;101756.29;105930;1258;73579;-77
2023/01/24 12:23:03;;;;;;;28.30;17.40;;;;;;;-1.40;100.00;101754.36;105694;1254;67711;-76
2023/01/24 12:25:40;;;;;;;31.60;20.90;;;;;;;-1.38;100.00;101752.45;106140;1254;73478;-73
2023/01/24 12:28:12;;;;;;;26.70;18.80;;;;;;;-1.38;100.00;101755.63;105764;1260;60563;-78
2023/01/24 12:30:43;;;;;;;38.70;19.40;;;;;;;-1.37;100.00;101756.44;105648;1254;60773;-76
2023/01/24 12:33:21;;;;;;;37.60;21.30;;;;;;;-1.40;100.00;101755.06;105806;1260;75180;-75
2023/01/24 12:35:54;;;;;;;40.70;20.80;;;;;;;-1.44;100.00;101755.92;105801;1260;69908;-78
2023/01/24 12:38:31;;;;;;;27.00;18.70;;;;;;;-1.42;100.00;101759.26;105798;1256;74417;-77
2023/01/24 12:41:23;;;;;;;29.30;18.90;;;;;;;-1.42;100.00;101757.73;105734;1253;60502;-77
2023/01/24 12:44:27;;;;;;;29.60;18.30;;;;;;;-1.44;100.00;101759.06;105987;1257;60746;-78
2023/01/24 12:47:04;;;;;;;34.00;20.50;;;;;;;-1.46;100.00;101762.94;105548;1254;72629;-75
2023/01/24 12:49:39;;;;;;;34.80;21.50;;;;;;;-1.41;100.00;101762.39;106117;1254;69462;-77
2023/01/24 12:52:21;;;;;;;33.70;22.20;;;;;;;-1.35;100.00;101766.10;105925;1259;73298;-84
2023/01/24 12:54:55;;;;;;;26.20;17.80;;;;;;;-1.27;100.00;101765.83;105925;1257;60568;-79
2023/01/24 12:57:40;;;;;;;30.40;18.90;;;;;;;-1.26;100.00;101762.79;105999;1261;60417;-83
2023/01/24 13:00:16;;;;;;;28.00;19.00;;;;;;;-1.26;100.00;101770.17;105871;1257;74653;-75
2023/01/24 13:03:07;;;;;;;28.00;18.00;;;;;;;-1.25;100.00;101772.58;106016;1254;68382;-85
2023/01/24 13:05:36;;;;;;;33.10;21.00;;;;;;;-1.29;100.00;101773.09;105862;1260;72194;-83
2023/01/24 13:08:12;;;;;;;28.20;18.10;;;;;;;-1.38;100.00;101773.77;106014;1257;62819;-82
2023/01/24 13:10:52;;;;;;;31.60;20.70;;;;;;;-1.44;100.00;101769.61;106083;1254;60690;-89
2023/01/24 13:13:34;;;;;;;31.70;20.20;;;;;;;-1.40;100.00;101770.77;105991;1254;75379;-88
2023/01/24 13:16:12;;;;;;;27.10;17.40;;;;;;;-1.33;100.00;101770.38;105879;1254;69787;-88
2023/01/24 13:19:09;;;;;;;30.00;18.60;;;;;;;-1.32;100.00;101770.42;106390;1253;73485;-86
2023/01/24 13:22:32;;;;;;;23.30;17.20;;;;;;;-1.34;100.00;101774.42;105602;1254;61177;-79
2023/01/24 13:25:25;;;;;;;27.80;17.70;;;;;;;-1.34;100.00;101774.61;105709;1258;60430;-77
2023/01/24 13:28:53;;;;;;;30.20;18.30;;;;;;;-1.38;100.00;101765.63;105880;1255;73844;-85
2023/01/24 13:31:36;;;;;;;26.00;18.10;;;;;;;-1.35;100.00;101768.44;105417;1265;67853;-84
2023/01/24 13:34:05;;;;;;;;;;;;;;;-1.29;100.00;101764.77;105583;1265;73677;-82
2023/01/24 13:36:36;;;;;;;25.60;17.80;;;;;;;-1.27;100.00;101768.48;105520;1254;61748;-81
2023/01/24 13:39:05;;;;;;;26.20;16.10;;;;;;;-1.26;100.00;101761.06;105925;1254;60649;-78
2023/01/24 13:41:36;;;;;;;22.90;15.40;;;;;;;-1.28;100.00;101763.48;105577;1261;75082;-81
2023/01/24 13:44:07;;;;;;;26.80;15.60;;;;;;;-1.29;100.00;101759.14;105531;1254;68723;-74
2023/01/24 13:46:41;;;;;;;29.80;17.00;;;;;;;-1.36;100.00;101754.05;105887;1254;72747;-85
2023/01/24 13:49:29;;;;;;;27.30;15.30;;;;;;;-1.42;100.00;101755.61;105961;1253;60515;-83
2023/01/24 13:51:58;;;;;;;25.90;16.40;;;;;;;-1.46;100.00;101752.92;105886;1257;60403;-74
2023/01/24 13:54:43;;;;;;;26.20;15.80;;;;;;;-1.53;100.00;101753.55;105362;1259;74931;-77
2023/01/24 13:57:37;;;;;;;22.20;11.60;;;;;;;-1.58;100.00;101756.75;105920;1253;69577;-72
2023/01/24 14:00:23;;;;;;;20.40;14.60;;;;;;;-1.64;100.00;101751.74;105466;1259;73229;-72
2023/01/24 14:03:03;;;;;;;29.40;18.50;;;;;;;-1.61;100.00;101749.96;105926;1254;60930;-71
2023/01/24 14:05:43;;;;;;;19.50;14.30;;;;;;;-1.60;100.00;101753.33;105866;1259;60792;-74
2023/01/24 14:08:21;;;;;;;25.60;15.80;;;;;;;-1.60;100.00;101747.93;106133;1254;73734;-76
2023/01/24 14:10:53;;;;;;;26.40;15.40;;;;;;;-1.57;100.00;101748.85;105909;1254;68692;-76
2023/01/24 14:13:43;;;;;;;30.90;16.80;;;;;;;-1.54;100.00;101746.17;105772;1253;73642;-77
2023/01/24 14:16:23;;;;;;;28.60;18.50;;;;;;;-1.50;100.00;101749.77;105867;1254;60560;-70
2023/01/24 14:18:59;;;;;;;32.00;17.70;;;;;;;-1.49;100.00;101751.05;106078;1257;60348;-72
2023/01/24 14:21:45;;;;;;;19.20;13.30;;;;;;;-1.45;100.00;101749.13;106830;1252;74595;-70
2023/01/24 14:24:26;;;;;;;19.20;14.10;;;;;;;-1.38;100.00;101751.95;105097;1254;67608;-70
2023/01/24 14:26:56;;;;;;;20.60;13.80;;;;;;;-1.34;100.00;101747.71;105890;1254;74022;-70
2023/01/24 14:29:36;;;;;;;28.40;19.20;;;;;;;-1.32;100.00;101746.51;105876;1254;60418;-69
2023/01/24 14:32:14;;;;;;;25.70;17.80;;;;;;;-1.26;100.00;101743.27;105863;1254;61542;-70
2023/01/24 14:34:47;;;;;;;29.60;17.30;;;;;;;-1.28;100.00;101740.60;105933;1254;75640;-70
2023/01/24 14:37:16;;;;;;;;;;;;;;;-1.30;100.00;101740.27;105912;1254;68918;-71
2023/01/24 14:39:45;;;;;;;24.10;19.50;;;;;;;-1.31;100.00;101744.16;105861;1254;72595;-70
2023/01/24 14:42:15;;;;;;;20.80;15.50;;;;;;;-1.24;100.00;101744.86;105802;1253;60503;-71
2023/01/24 14:44:53;;;;;;;24.80;15.60;;;;;;;-1.21;100.00;101742.67;105926;1253;62055;-71
2023/01/24 14:47:30;;;;;;;21.30;16.80;;;;;;;-1.25;100.00;101744.21;105842;1256;73935;-70